Tiempo atmosférico en la estación meteorológica de Jerez de la Frontera Aeropuerto, Cádiz (27 m.)



Fecha
DESCASC
Temp. máxima en grados centígrados (hora)
DESCASC
Temp. mínima en grados centígrados (hora)
DESCASC
Temp. media en grados centígrados
DESCASC
Racha de viento máxima en m/sg (hora)
DESCASC
Velocidad máxima media en intervalos de 10 minutos(hora)
DESCASC
Precipitaciones diarias en mm
DESCASC
Precipitaciones de 00:00 a 06:00 en mm
DESCASC
Precipitaciones de 06:00 a 12:00 en mm
DESCASC
Precipitaciones de 12:00 a 18:00 en mm
DESCASC
Precipitaciones de 18:00 a 24:00 en mm
DESCASC
22-01-2020 13 (14:30) 7.5 (01:30) 10.3 8.89 (15:10) 5.83 (15:10) 14.5 0.6 1.5 4.3 8.1
21-01-2020 13.7 (15:00) 5 (07:40) 9.3 13.89 (12:50) 10 (14:10) 0 0 0 0 0
20-01-2020 12 (16:20) 5.9 (08:10) 9 18.06 (07:20) 12.5 (12:00) 0.3 0 0 0.3 0
19-01-2020 -- (--) -- (--) -- -- (--) -- (--) -- 0 0 -- 0
18-01-2020 16.9 (13:40) 9.7 (00:00) 13.3 11.67 (23:59) 8.06 (16:10) 2.5 0 0.2 2.1 0.2
17-01-2020 19.7 (17:20) 6.3 (00:00) 13 5 (16:10) 3.61 (16:10) 0 0 0 0 0
16-01-2020 20.5 (15:20) 1.1 (00:00) 10.8 6.67 (15:20) 5 (16:40) 0 0 0 0 0
15-01-2020 19.1 (14:00) 4.4 (00:00) 11.8 9.17 (14:30) 6.67 (14:40) 0 0 0 0 0
14-01-2020 16.9 (15:10) 1.8 (00:00) 9.3 5 (17:00) 3.33 (17:40) 0 0 0 0 0
13-01-2020 17.1 (15:50) -0.2 (00:00) 8.5 5.83 (12:30) 4.17 (13:00) 0 0 0 0 0
12-01-2020 16.9 (15:40) 0.7 (00:00) 8.8 7.78 (16:00) 5.28 (16:10) 0 0 0 0 0
11-01-2020 17.3 (15:20) 1.3 (00:00) 9.3 7.22 (01:10) 5.56 (01:10) 0 0 0 0 0
10-01-2020 15.2 (15:50) 2.1 (00:00) 8.6 9.17 (17:40) 5.28 (15:30) 0 0 0 0 0
09-01-2020 18 (14:40) 1.4 (00:00) 9.7 7.78 (16:20) 4.17 (19:10) 0 0 0 0 0
08-01-2020 17.7 (16:30) 0.7 (00:00) 9.2 4.72 (17:50) 2.5 (03:30) 0 0 0 0 0
07-01-2020 16.6 (16:40) 0.7 (00:00) 8.7 4.72 (14:20) 2.78 (16:00) 0 0 0 0 0
06-01-2020 16.9 (14:30) 1.5 (00:00) 9.2 -- (--) -- (--) 0 0 0 0 0
05-01-2020 17.4 (15:10) 2.7 (00:00) 10 6.11 (13:00) 4.17 (12:50) 0 0 0 0 0
04-01-2020 14.7 (15:40) 0.6 (00:00) 7.6 7.22 (13:30) 5.56 (13:30) 0 0 0 0 0
03-01-2020 -- (--) -- (--) -- -- (--) -- (--) 0 0 0 0 0
02-01-2020 19 (15:40) 3 (00:00) 11 5.83 (17:30) 4.17 (17:20) 0 0 0 0 0
01-01-2020 17.7 (16:00) 2.2 (00:00) 10 4.17 (12:30) 2.78 (18:20) 0 0 0 0 0
31-12-2019 17.5 (16:20) 1.8 (00:00) 9.6 4.72 (14:10) 3.33 (18:40) 0 0 0 0 0
30-12-2019 17.7 (16:00) 1.9 (00:00) 9.8 6.11 (16:50) 3.89 (16:30) 0 0 0 0 0
29-12-2019 19.6 (15:30) 2.3 (00:00) 11 5 (15:30) 3.33 (16:50) -- 0 0 -- 0
28-12-2019 20.2 (16:30) 3.6 (00:00) 11.9 4.72 (13:00) 3.33 (12:50) 0 0 0 0 0
27-12-2019 22.4 (15:10) 6 (00:00) 14.2 9.72 (14:40) 5.83 (13:30) 0 0 0 0 0
26-12-2019 20 (14:50) 8.1 (00:00) 14.1 10.83 (15:00) 7.78 (14:50) 0 0 0 0 0
25-12-2019 20.3 (15:30) 4.9 (00:00) 12.6 5 (17:00) 3.33 (16:50) 0 0 0 0 0

Gráficas

Temp. máximas Temp. mínimas Temp. medias Precipitaciones Rachas de viento máximas Velocidades máximas media en intervalos de 10 minutos

Datos horarios

Fecha y hora oficial Temperatura (ºC) Velocidad del viento (km/h) Dirección del viento Racha (km/h) Dirección de racha Precipitación (mm) Presión (hPa) Tendencia (hPa) Humedad (%)
2020-01-23 23:00:00 10.7 19 Sudeste 28 Sudeste 0 1014.9 1.4 93
2020-01-23 22:00:00 10.3 7 Sudeste 17 Sur 0.5 1014.6 1.3 95
2020-01-23 21:00:00 10.3 11 Sur 21 Sudeste 0.2 1014.4 1.4 94
2020-01-23 20:00:00 10.3 11 Sudeste 18 Sudeste 0.9 1013.5 0.8 95
2020-01-23 19:00:00 10.7 9 Sur 26 Sudeste 0.4 1013.3 0.8 90
2020-01-23 18:00:00 11.8 16 Sur 28 Sur 0.1 1013 0.7 88
2020-01-23 17:00:00 11.3 10 Sur 32 Sur 1.5 1012.7 0 93
2020-01-23 16:00:00 12.9 21 Sur 35 Sur 0.7 1012.5 -0.7 89
2020-01-23 15:00:00 14.4 24 Sur 39 Sur 0 1012.3 -0.9 78
2020-01-23 14:00:00 14.5 24 Sur 42 Sudeste 0 1012.7 -0.2 77
2020-01-23 13:00:00 14.4 24 Sur 39 Sur 0 1013.2 0.7 76
2020-01-23 12:00:00 14.3 22 Sudeste 39 Sur 0 1013.2 1.3 79
2020-01-23 11:00:00 12.7 24 Sudeste 39 Sudeste 0 1012.9 1.5 83
2020-01-23 10:00:00 11 16 Sudeste 33 Sudeste 0 1012.5 1.1 88
2020-01-23 09:00:00 10.8 17 Sudeste 30 Sudeste 0.1 1011.9 0.3 90
2020-01-23 08:00:00 10.5 14 Sudeste 28 Sudeste 0.4 1011.4 -0.5 91
2020-01-23 07:00:00 10.7 17 Sudeste 26 Sudeste 0.3 1011.4 -0.6 91
2020-01-23 06:00:00 10.7 12 Sur 24 Sudoeste 0.3 1011.6 -0.7 88
2020-01-23 05:00:00 10.4 10 Sur 26 Sur 2.2 1011.9 -0.3 92
2020-01-23 04:00:00 10.6 14 Sudeste 24 Sudeste 0 1012 -0.3 93
2020-01-23 03:00:00 10 6 Sur 39 Sudeste 2.6 1012.3 -0.1 94
2020-01-23 02:00:00 10 15 Sudeste 30 Sudeste 0.1 1012.2 -0.2 91
2020-01-23 01:00:00 10 18 Sudeste 30 Sudeste 0 1012.3 0.1 90
2020-01-23 00:00:00 9.5 12 Sudeste 18 Sudeste 0 1012.4 0.4 91
2020-01-22 23:00:00 9.6 10 Sudeste 28 Sudeste 0 1012.4 0.5 90
2020-01-22 22:00:00 9.8 18 Sudeste 32 Sudeste 0 1012.2 0.3 93
2020-01-22 21:00:00 9.9 17 Sudeste 30 Sudeste 0.3 1012 0.7 93
2020-01-22 20:00:00 9.3 16 Sudeste 26 Sudeste 4 1011.9 0.7 92
2020-01-22 19:00:00 9.7 15 Sur 28 Sudoeste 3.8 1011.9 1 94
2020-01-22 18:00:00 10.5 15 Sudeste 24 Sudeste 0.1 1011.3 0.4 92
2020-01-22 17:00:00 10.1 10 Sudeste 28 Sudeste 3.1 1011.2 -0.2 95
2020-01-22 16:00:00 11.1 8 Sudeste 32 Sudeste 0.8 1010.9 -1.5 88
2020-01-22 15:00:00 12.1 18 Sudeste 28 Sudeste 0.1 1010.9 -1.8 84
2020-01-22 14:00:00 11.9 15 Este 24 Este 0 1011.4 -0.9 85
2020-01-22 13:00:00 10.8 11 Este 18 Nordeste 0.2 1012.4 0.3 94
2020-01-22 12:00:00 9.7 10 Este 17 Nordeste 0.9 1012.7 1 95
2020-01-22 11:00:00 9.4 6 Nordeste 9 Nordeste 0 1012.3 1 95
2020-01-22 10:00:00 8.3 8 Este 11 Este 0.2 1012.1 1.4 97
2020-01-22 09:00:00 8.1 5 Este 9 Sudeste 0.3 1011.7 1.1 96
2020-01-22 08:00:00 8.1 8 Sudeste 15 Sudeste 0 1011.3 0.5 94
2020-01-22 07:00:00 8.1 6 Sur 11 Sur 0.1 1010.7 0 94
2020-01-22 06:00:00 8.1 6 Sur 13 Sudeste 0 1010.6 0 92
2020-01-22 05:00:00 7.9 3 Sudeste 15 Sur 0.3 1010.8 0.3 93
2020-01-22 04:00:00 8 10 Sur 18 Sur 0.3 1010.7 0.2 91
2020-01-22 03:00:00 8 8 Sur 11 Sur 0 1010.6 0.1 84
2020-01-22 02:00:00 7.5 6 Sudeste 9 Sudeste 0 1010.5 0.4 83
2020-01-22 01:00:00 8.1 4 Sur 5 Sur 0 1010.5 0.6 80
2020-01-22 00:00:00 8.3 5 Noroeste 11 Noroeste 0 1010.5 0.5 79
2020-01-21 23:00:00 8.7 7 Noroeste 13 Noroeste 0 1010.1 0.3 76
2020-01-21 22:00:00 9.1 9 Noroeste 15 Noroeste 0 1009.9 0.7 74
2020-01-21 21:00:00 9.6 11 Noroeste 17 Noroeste 0 1010 1.2 72
2020-01-21 20:00:00 10 13 Norte 24 Norte 0 1009.8 1.1 68
2020-01-21 19:00:00 10 16 Norte 30 Norte 0 1009.2 0.4 68
2020-01-21 18:00:00 11.3 18 Norte 32 Norte 0 1008.8 -0.1 63
2020-01-21 17:00:00 12.2 23 Norte 39 Norte 0 1008.7 -0.5 58
2020-01-21 16:00:00 12.6 31 Norte 45 Norte 0 1008.8 -1.4 56
2020-01-21 15:00:00 13.5 31 Norte 50 Norte 0 1008.9 -1.9 55
2020-01-21 14:00:00 12.6 30 Norte 50 Nordeste 0 1009.2 -1.7 57
2020-01-21 13:00:00 12.2 33 Norte 50 Norte 0 1010.2 -0.7 58
2020-01-21 12:00:00 11.8 30 Norte 42 Norte 0 1010.8 0.1 63
2020-01-21 11:00:00 10.1 30 Norte 45 Norte 0 1010.9 0.7 68
2020-01-21 10:00:00 8.2 15 Norte 22 Nordeste 0 1010.9 0.7 75
2020-01-21 09:00:00 6.4 14 Nordeste 33 Nordeste 0 1010.7 0.4 80
2020-01-21 08:00:00 5.5 22 Norte 33 Norte 0 1010.2 -0.3 85
2020-01-21 07:00:00 5.4 21 Norte 28 Norte 0 1010.2 -0.6 86
2020-01-21 06:00:00 6 19 Norte 26 Norte 0 1010.3 -0.8 83
2020-01-21 05:00:00 6.6 14 Norte 24 Norte 0 1010.5 -1.1 81
2020-01-21 04:00:00 6.7 15 Norte 24 Norte 0 1010.8 -1.2 81
2020-01-21 03:00:00 6.4 19 Norte 30 Norte 0 1011.1 -0.8 83
2020-01-21 02:00:00 8 19 Norte 30 Norte 0 1011.6 0.1 77
2020-01-21 01:00:00 8.4 15 Norte 30 Norte 0 1012 0.4 78
2020-01-21 00:00:00 9.1 18 Norte 30 Norte 0 1011.9 0.5 74
2020-01-20 23:00:00 8.8 17 Nordeste 32 Norte 0 1011.5 0 73
2020-01-20 22:00:00 8.1 13 Nordeste 30 Nordeste 0 1011.6 0.6 75
2020-01-20 21:00:00 7.5 15 Nordeste 26 Nordeste 0 1011.4 0.7 78
2020-01-20 20:00:00 7.6 10 Nordeste 18 Nordeste 0 1011.5 1.3 80
2020-01-20 19:00:00 7.2 8 Nordeste 28 Nordeste 0 1011 1.2 84
2020-01-20 18:00:00 8.3 23 Nordeste 45 Nordeste 0.3 1010.7 0.5 79
2020-01-20 17:00:00 10.5 31 Nordeste 48 Nordeste 0 1010.2 -0.8 60
2020-01-20 16:00:00 11.3 33 Nordeste 48 Nordeste 0 1009.8 -1.8 54
2020-01-20 15:00:00 11.2 37 Nordeste 54 Nordeste 0 1010.2 -1.6 53
2020-01-20 14:00:00 11 39 Nordeste 58 Nordeste 0 1011 -1.3 54
2020-01-20 13:00:00 10.4 41 Nordeste 63 Nordeste 0 1011.6 -0.6 53
2020-01-20 12:00:00 9.4 45 Nordeste 59 Nordeste 0 1011.8 -0.4 56
2020-01-20 11:00:00 8.1 40 Nordeste 58 Nordeste 0 1012.3 0 62
2020-01-20 10:00:00 6.7 29 Norte 52 Nordeste 0 1012.2 0 62
2020-01-20 09:00:00 6.4 32 Nordeste 48 Norte 0 1012.2 -0.3 62
2020-01-20 08:00:00 6.1 34 Nordeste 65 Nordeste 0 1012.3 -0.4 64
2020-01-20 07:00:00 6.4 37 Nordeste 55 Nordeste 0 1012.2 -1.2 64
2020-01-20 06:00:00 6.4 36 Nordeste 54 Norte 0 1012.5 -1 65
2020-01-20 05:00:00 6.8 36 Nordeste 52 Nordeste 0 1012.7 -0.9 67
2020-01-20 04:00:00 7 35 Nordeste 58 Norte 0 1013.4 -0.4 70
2020-01-20 03:00:00 7.4 41 Nordeste 59 Nordeste 0 1013.5 -0.9 69
2020-01-20 02:00:00 7.1 39 Norte 58 Nordeste 0 1013.6 -1.3 73
2020-01-20 01:00:00 7.3 35 Norte 59 Norte 0 1013.8 -0.8 73
2020-01-20 00:00:00 8.2 37 Norte 52 Norte 0 1014.4 0.1 71
2020-01-19 23:00:00 8.6 22 Norte 46 Nordeste 0 1014.9 0.2 70
2020-01-19 22:00:00 10 31 Nordeste 55 Norte 0 1014.6 0 63
2020-01-19 21:00:00 10.3 13 Norte 32 Norte 0 1014.3 -0.4 73
2020-01-19 20:00:00 11.5 21 Norte 33 Norte 0 1014.7 0 65
2020-01-19 19:00:00 10.3 17 Norte 22 Norte 0 1014.6 -- 77
2020-01-19 18:00:00 11.9 15 Nordeste 41 Nordeste 0 1014.7 -0.7 71
2020-01-19 17:00:00 13.6 10 Nordeste -- -- -- 1014.7 -1.5 67
2020-01-19 16:00:00 -- -- -- -- -- -- -- -- --
2020-01-19 15:00:00 15.7 27 Norte 39 Norte 0 1015.4 -3.1 59
2020-01-19 14:00:00 15 23 Norte 45 Noroeste 0 1016.2 -2.9 65
2020-01-19 13:00:00 14.1 30 Norte 42 Norte 0 1017.1 -2.1 67
2020-01-19 12:00:00 13.3 22 Noroeste 32 Noroeste 0 1018.5 -0.5 82
2020-01-19 11:00:00 11.2 14 Noroeste 22 Noroeste 0 1019.1 0.3 87
2020-01-19 10:00:00 9.4 7 Noroeste 13 Noroeste 0 1019.2 0.4 90
2020-01-19 09:00:00 8.5 10 Oeste 21 Oeste 0 1019 -0.3 91
2020-01-19 08:00:00 9.1 13 Oeste 26 Noroeste 0 1018.8 -1 88
2020-01-19 07:00:00 9.8 17 Oeste 30 Oeste 0 1018.8 -2 85
2020-01-19 06:00:00 10.3 18 Oeste 32 Oeste 0 1019.3 -1.9 86
2020-01-19 05:00:00 10.9 16 Oeste 28 Oeste 0 1019.8 -2.3 89
2020-01-19 04:00:00 10.6 10 Oeste 15 Oeste 0 1020.8 -1.8 94
2020-01-19 03:00:00 11 10 Oeste 24 Noroeste 0 1021.2 -1 90
2020-01-19 02:00:00 11.5 17 Noroeste 33 Noroeste 0 1022.1 -0.1 89
2020-01-19 01:00:00 13.3 26 Noroeste 55 Noroeste 0 1022.6 -0.2 87
2020-01-19 00:00:00 16.1 24 Oeste 42 Oeste 0 1022.2 -1.3 96
2020-01-18 23:00:00 15.8 23 Sudoeste 32 Oeste 0.1 1022.2 -2 97
2020-01-18 22:00:00 16 22 Sudoeste 35 Sudoeste 0 1022.8 -1.5 96
2020-01-18 21:00:00 16.1 25 Sudoeste 33 Sudoeste 0 1023.5 -1.2 96
2020-01-18 20:00:00 15.9 21 Sudoeste 35 Sudoeste 0 1024.2 -0.7 98
2020-01-18 19:00:00 15.7 26 Sudoeste 33 Sudoeste 0.1 1024.3 -0.8 98
2020-01-18 18:00:00 15.6 20 Sudoeste 32 Sur 1.6 1024.7 -0.9 98
2020-01-18 17:00:00 15.7 24 Sudoeste 39 Sur 0.4 1024.9 -1.7 97
2020-01-18 16:00:00 16.1 26 Sur 39 Sudoeste 0 1025.1 -2.8 94
2020-01-18 15:00:00 16.5 22 Sur 32 Sur 0.1 1025.6 -3.3 93
2020-01-18 14:00:00 16.6 22 Sur 32 Sur 0 1026.6 -2.8 90
2020-01-18 13:00:00 15.4 18 Sur 26 Sudeste 0 1027.9 -0.8 98
2020-01-18 12:00:00 13.9 12 Sudeste 18 Sudeste 0.2 1028.9 0.6 100
2020-01-18 11:00:00 12.5 6 Este 9 Este 0 1029.4 1.1 100
2020-01-18 10:00:00 11.6 3 Este 8 Este 0 1028.7 1.4 100
2020-01-18 09:00:00 10.6 4 Este 8 Este 0 1028.3 1.3 100
2020-01-18 08:00:00 10.4 4 Sudoeste 13 Sur 0 1028.3 0.9 100
2020-01-18 07:00:00 9.7 3 Sur 8 Sur 0 1027.3 -0.7 100
2020-01-18 06:00:00 10.4 5 Sur 11 Sudoeste 0 1027 -1.2 100
2020-01-18 05:00:00 11.2 5 Sudeste 9 Sudeste 0 1027.4 -1.2 100
2020-01-18 04:00:00 11.4 5 Este 11 Este 0 1028 -1.3 100
2020-01-18 03:00:00 11.8 6 Este 9 Este 0 1028.2 -1.3 100
2020-01-18 02:00:00 12.1 5 Este 9 Sudeste 0 1028.6 -0.8 100
2020-01-18 01:00:00 11.8 0 Calma 2 Este 0 1029.3 -0.2 100
2020-01-18 00:00:00 10.9 4 Nordeste 9 Este 0 1029.5 0.3 99
2020-01-17 23:00:00 9.9 7 Este 9 Este 0 1029.4 0.7 99
2020-01-17 22:00:00 8.8 0 Calma 5 Sudoeste 0 1029.5 1.3 97
2020-01-17 21:00:00 11.6 3 Sur -- -- 0 1029.2 1.2 97
2020-01-17 20:00:00 13.4 7 Sur 11 Sur 0 1028.7 0.9 94
2020-01-17 19:00:00 15.2 9 Sur 11 Sur 0 1028.2 0.6 86
2020-01-17 18:00:00 16.8 7 Norte 18 Oeste 0 1028 0.1 77
2020-01-17 17:00:00 19.4 9 Sudoeste 18 Sudoeste 0 1027.8 -0.9 69
2020-01-17 16:00:00 18.5 12 Sudoeste 17 Sudoeste 0 1027.6 -2.1 74
2020-01-17 15:00:00 19.3 6 Sudoeste 17 Sur 0 1027.9 -2.2 68
2020-01-17 14:00:00 18.6 9 Sudoeste 15 Sur 0 1028.7 -1.2 74
2020-01-17 13:00:00 17.4 6 Sur 15 Sur 0 1029.7 0.2 81
2020-01-17 12:00:00 16.3 9 Sur 15 Sudeste 0 1030.1 1.3 82
2020-01-17 11:00:00 14.9 6 Sur 9 Sur 0 1029.9 1.5 85
2020-01-17 10:00:00 12.4 4 Este 8 Norte 0 1029.5 1.6 93
2020-01-17 09:00:00 10.8 4 Sur 9 Este 0 1028.8 1.5 94
2020-01-17 08:00:00 9.8 6 Nordeste 9 Nordeste 0 1028.4 1.3 97
2020-01-17 07:00:00 8.7 5 Oeste 11 Sudoeste 0 1027.9 0.7 96
2020-01-17 06:00:00 7.6 -- -- -- -- 0 1027.3 0 96
2020-01-17 05:00:00 7.1 8 Este 9 Este 0 1027.1 0 96
2020-01-17 04:00:00 7.1 0 Calma 8 Este 0 1027.2 0 95
2020-01-17 03:00:00 7.4 0 Calma 5 Norte 0 1027.3 -0.2 95
2020-01-17 02:00:00 7.1 5 Este 8 Este 0 1027.1 0.3 95
2020-01-17 01:00:00 7.3 6 Sudeste 9 Este 0 1027.2 0.5 94
2020-01-17 00:00:00 -- 8 Nordeste 11 Este 0 1027.5 1.2 --
2020-01-16 23:00:00 7.7 5 Este 11 Este 0 1026.8 0.9 90
2020-01-16 22:00:00 8.3 9 Este 11 Este 0 1026.7 1.5 89
2020-01-16 21:00:00 11 8 Sudeste 11 Sur 0 1026.3 1.6 84
2020-01-16 20:00:00 11.3 9 Sur 15 Sur 0 1025.9 1.6 84
2020-01-16 19:00:00 12.1 13 Sudoeste 18 Sur 0 1025.2 1.2 79
2020-01-16 18:00:00 16.7 15 Sudoeste 22 Sudoeste 0 1024.7 0.6 59
2020-01-16 17:00:00 18.7 15 Sudoeste 24 Sudoeste 0 1024.3 -0.3 54
2020-01-16 16:00:00 19.9 15 Sudoeste 24 Sudoeste 0 1024 -1.4 42
2020-01-16 15:00:00 20.3 12 Sudoeste 21 Sudoeste 0 1024.1 -1.7 38
2020-01-16 14:00:00 19.5 8 Sur 21 Sudoeste 0 1024.6 -1.3 46
2020-01-16 13:00:00 18.4 10 Sudeste 18 Sudeste 0 1025.4 -0.2 47
2020-01-16 12:00:00 14.8 4 Este 9 Este 0 1025.8 0.9 55
2020-01-16 11:00:00 11.4 4 Este 5 Este 0 1025.9 1.4 62
2020-01-16 10:00:00 5.7 7 Nordeste 9 Este 0 1025.6 1.3 83
2020-01-16 09:00:00 1.6 -- -- -- -- 0 1024.9 0.9 90
2020-01-16 08:00:00 1.8 8 Nordeste 9 Nordeste 0 1024.5 0.5 88
2020-01-16 07:00:00 2.4 4 Este 5 Este 0 1024.3 0 89
2020-01-16 06:00:00 3.5 3 Este 9 Este 0 1024 -0.4 84
2020-01-16 05:00:00 4.2 8 Este 11 Nordeste 0 1024 -0.5 84
2020-01-16 04:00:00 4.8 5 Este 11 Este 0 1024.3 -0.3 85
2020-01-16 03:00:00 4.5 9 Este 11 Este 0 1024.4 -0.5 88
2020-01-16 02:00:00 5.7 3 Nordeste 13 Este 0 1024.5 -0.3 87
2020-01-16 01:00:00 4.7 6 Nordeste 8 Nordeste 0 1024.6 0 90
2020-01-16 00:00:00 5.8 5 Norte 8 Norte 0 1024.9 0.4 87
2020-01-15 23:00:00 6.5 5 Nordeste -- -- 0 1024.8 0.5 87
2020-01-15 22:00:00 7.2 0 Calma 9 Nordeste 0 1024.6 0.5 87
2020-01-15 21:00:00 8.6 5 Norte 8 Norte 0 1024.5 0.7 82
2020-01-15 20:00:00 11.2 7 Sudeste 11 Sur 0 1024.3 0.9 78
2020-01-15 19:00:00 13.4 9 Sur 17 Sur 0 1024.1 1.3 72
2020-01-15 18:00:00 16.3 13 Sur 24 Sur 0 1023.8 1 64
2020-01-15 17:00:00 17.9 20 Sudoeste 30 Sudoeste 0 1023.4 0.2 56
2020-01-15 16:00:00 18.8 20 Sur 30 Sur 0 1022.8 -0.8 51
2020-01-15 15:00:00 18.9 21 Sudoeste 33 Sudoeste 0 1022.8 -1.3 54
2020-01-15 14:00:00 19 22 Sudoeste 28 Sudoeste 0 1023.2 -0.5 54
2020-01-15 13:00:00 18.3 19 Sudoeste 28 Sur 0 1023.6 0.7 60
2020-01-15 12:00:00 16.5 14 Sur 22 Sur 0 1024.1 1.7 70
2020-01-15 11:00:00 13.7 9 Sur 15 Sudeste 0 1023.7 1.7 79
2020-01-15 10:00:00 10.1 3 Sudeste 11 Este 0 1022.9 1.8 93
2020-01-15 09:00:00 6.3 9 Este 15 Este 0 1022.4 1.4 97
2020-01-15 08:00:00 4.4 8 Nordeste 15 Este 0 1022 0.8 93
2020-01-15 07:00:00 5.9 9 Este 13 Este 0 1021.1 -0.3 96
2020-01-15 06:00:00 5.1 9 Este 11 Este 0 1021 -0.4 94
2020-01-15 05:00:00 5.8 7 Este 11 Este 0 1021.2 -0.2 94
2020-01-15 04:00:00 5.2 7 Este -- -- 0 1021.4 -0.4 92
2020-01-15 03:00:00 6.5 8 Este 13 Este 0 1021.4 -0.6 90
2020-01-15 02:00:00 6.3 6 Este 11 Este 0 1021.4 -0.5 88
2020-01-15 01:00:00 6.2 7 Este 9 Nordeste 0 1021.8 0 89
2020-01-15 00:00:00 7.1 4 Este 11 Este 0 1022 0.3 86
2020-01-14 23:00:00 6.9 8 Este 11 Nordeste 0 1021.9 0.4 86
2020-01-14 22:00:00 7 4 Nordeste -- -- 0 1021.8 0.4 87
2020-01-14 21:00:00 7.7 6 Norte 8 Norte 0 1021.7 0.7 83
2020-01-14 20:00:00 10.1 5 Este 9 Sudeste 0 1021.5 0.8 72
2020-01-14 19:00:00 11.9 6 Sudoeste 18 Sudoeste 0 1021.4 1.1 66
2020-01-14 18:00:00 15 10 Sudoeste 17 Sudoeste 0 1021 0.5 55
2020-01-14 17:00:00 15.8 10 Sudoeste 18 Sudoeste 0 1020.7 -0.5 53
2020-01-14 16:00:00 15.9 3 Sudoeste 11 Sudoeste 0 1020.3 -1.8 53
2020-01-14 15:00:00 16.6 5 Sudeste 11 Sur 0 1020.5 -2.3 52
2020-01-14 14:00:00 15.6 5 Sudoeste 13 Sudoeste 0 1021.2 -1.5 56
2020-01-14 13:00:00 14.6 3 Sudoeste 11 Este 0 1022.1 0.1 63
2020-01-14 12:00:00 12.2 0 Calma 8 Oeste 0 1022.8 1.5 73
2020-01-14 11:00:00 9 2 Oeste 5 Oeste 0 1022.7 1.4 83
2020-01-14 10:00:00 4.5 4 Norte 8 Norte 0 1022 1.3 97
2020-01-14 09:00:00 2.4 4 Este 11 Este 0 1021.3 0.9 96
2020-01-14 08:00:00 2.2 4 Este -- -- 0 1021.3 0.6 96
2020-01-14 07:00:00 2.9 4 Noroeste 15 Sudeste 0 1020.7 -0.3 95
2020-01-14 06:00:00 4.2 3 Sur 9 Sur 0 1020.4 -0.8 92
2020-01-14 05:00:00 5.1 0 Calma 9 Nordeste 0 1020.7 -0.7 92
2020-01-14 04:00:00 4.9 2 Norte 13 Norte 0 1021 -0.9 94
2020-01-14 03:00:00 3.9 7 Norte 15 Noroeste 0 1021.2 -0.9 94
2020-01-14 02:00:00 4.5 4 Este 8 Nordeste 0 1021.4 -0.7 93
2020-01-14 01:00:00 4.5 7 Nordeste 9 Nordeste 0 1021.9 -0.4 93
2020-01-14 00:00:00 4.4 6 Norte 9 Norte 0 1022.1 -0.5 90
2020-01-13 23:00:00 6.1 4 Nordeste 5 Nordeste 0 1022.1 -0.6 88
2020-01-13 22:00:00 8.1 4 Nordeste 5 Nordeste 0 1022.3 -0.1 84
2020-01-13 21:00:00 10 4 Nordeste -- -- 0 1022.6 0.6 78
2020-01-13 20:00:00 10.7 9 Noroeste 11 Noroeste 0 1022.7 1 77
2020-01-13 19:00:00 12.8 7 Oeste 13 Oeste 0 1022.4 0.4 68
2020-01-13 18:00:00 14.3 9 Norte 13 Norte 0 1022 -0.4 65
2020-01-13 17:00:00 16.4 4 Noroeste 13 Noroeste 0 1021.7 -1.8 56
2020-01-13 16:00:00 16.9 4 Oeste 11 Oeste 0 1022 -2.6 55
2020-01-13 15:00:00 16.4 4 Norte 15 Norte 0 1022.4 -2.7 55
2020-01-13 14:00:00 15.3 10 Norte 21 Norte 0 1023.5 -1.4 58
2020-01-13 13:00:00 13.7 15 Norte 21 Norte 0 1024.6 0.3 64
2020-01-13 12:00:00 12.1 11 Noroeste 17 Norte 0 1025.1 0.9 71
2020-01-13 11:00:00 7.9 4 Norte 8 Norte 0 1024.9 1 85
2020-01-13 10:00:00 3.8 2 Este 5 Sudeste 0 1024.3 0.7 91
2020-01-13 09:00:00 0.8 4 Norte 8 Noroeste 0 1024.2 0.4 94
2020-01-13 08:00:00 0.9 5 Nordeste 13 Sudeste 0 1023.9 -0.3 95
2020-01-13 07:00:00 0.3 4 Norte 9 Sudeste 0 1023.6 -1.1 93
2020-01-13 06:00:00 0.2 9 Norte 9 Norte 0 1023.8 -0.9 94
2020-01-13 05:00:00 0.3 5 Nordeste 8 Nordeste 0 1024.2 -1.1 93
2020-01-13 04:00:00 1.3 4 Norte 8 Nordeste 0 1024.7 -1.2 92
2020-01-13 03:00:00 1.4 0 Calma 8 Nordeste 0 1024.7 -1.7 91
2020-01-13 02:00:00 1.1 5 Nordeste -- -- -- 1025.3 -1 90
2020-01-13 01:00:00 2 4 Nordeste 8 Nordeste 0 1025.9 -0.3 90
2020-01-13 00:00:00 3.2 3 Sudeste 8 Sudeste 0 1026.4 0.6 87
2020-01-12 23:00:00 3.7 4 Norte 5 Norte 0 1026.3 0.2 84
2020-01-12 22:00:00 5.3 0 Calma 8 Sur 0 1026.2 0.8 82
2020-01-12 21:00:00 7.3 3 Norte 5 Noroeste 0 1025.8 0.6 76
2020-01-12 20:00:00 9.3 3 Nordeste 17 Norte 0 1026.1 0.9 76
2020-01-12 19:00:00 11.1 14 Norte 18 Norte 0 1025.4 0.1 69
2020-01-12 18:00:00 14.2 14 Norte 22 Norte 0 1025.2 -0.6 53
2020-01-12 17:00:00 16.6 14 Norte 26 Norte 0 1025.2 -1.5 46
2020-01-12 16:00:00 16.9 18 Norte 28 Norte 0 1025.3 -2.7 47
2020-01-12 15:00:00 16.4 17 Norte 24 Norte 0 1025.8 -3 56
2020-01-12 14:00:00 15.4 15 Norte 22 Norte 0 1026.7 -2.1 58
2020-01-12 13:00:00 14.5 12 Norte 18 Noroeste 0 1028 -0.3 63
2020-01-12 12:00:00 11.9 4 Norte 8 Norte 0 1028.8 0.7 73
2020-01-12 11:00:00 8.4 0 Calma 8 Norte 0 1028.8 1.1 84
2020-01-12 10:00:00 4.4 6 Norte 8 Norte 0 1028.3 0.8 95
2020-01-12 09:00:00 1 8 Norte 9 Norte 0 1028.1 0.7 95
2020-01-12 08:00:00 1.3 5 Norte 8 Norte 0 1027.7 0.1 94
2020-01-12 07:00:00 1.4 0 Calma 4 Oeste 0 1027.5 -0.4 94
2020-01-12 06:00:00 2.3 0 Calma 5 Norte 0 1027.4 -0.3 94
2020-01-12 05:00:00 2 -- -- -- -- 0 1027.6 0.1 94
2020-01-12 04:00:00 3.1 0 Calma 5 Sur 0 1027.9 0.2 92
2020-01-12 03:00:00 4.4 5 Noroeste 8 Noroeste 0 1027.7 -0.2 91
2020-01-12 02:00:00 3.7 8 Norte 9 Norte 0 1027.5 -0.1 90
2020-01-12 01:00:00 4.9 6 Este 13 Nordeste 0 1027.7 0.1 88
2020-01-12 00:00:00 4.7 10 Este 13 Este 0 1027.9 0.6 88
2020-01-11 23:00:00 5.7 7 Nordeste 9 Nordeste 0 1027.6 0.7 83
2020-01-11 22:00:00 6.3 4 Nordeste -- -- 0 1027.6 1.2 86
2020-01-11 21:00:00 7.9 0 Calma 13 Sudeste 0 1027.3 1.6 80
2020-01-11 20:00:00 9.4 3 Norte 11 Norte 0 1026.9 1.6 75
2020-01-11 19:00:00 11.1 10 Nordeste 13 Norte 0 1026.4 1.2 69
2020-01-11 18:00:00 13.3 13 Norte 17 Norte 0 1025.7 0.3 65
2020-01-11 17:00:00 16.6 12 Norte 22 Norte 0 1025.3 -0.8 54
2020-01-11 16:00:00 17.1 10 Norte 17 Norte 0 1025.2 -1.6 53
2020-01-11 15:00:00 16.9 6 Nordeste 24 Noroeste 0 1025.4 -1.7 55
2020-01-11 14:00:00 16.5 11 Norte 17 Norte 0 1026.1 -1 57
2020-01-11 13:00:00 14.6 5 Noroeste 9 Norte 0 1026.8 0.4 60
2020-01-11 12:00:00 11.8 5 Noroeste 9 Noroeste 0 1027.1 1.3 64
2020-01-11 11:00:00 8.7 4 Norte 13 Norte 0 1027.1 1.9 72
2020-01-11 10:00:00 6 10 Norte 15 Norte 0 1026.4 1.7 83
2020-01-11 09:00:00 2.1 3 Norte 8 Norte 0 1025.8 1.3 89
2020-01-11 08:00:00 2 2 Sudoeste 5 Sudoeste 0 1025.2 0.8 89
2020-01-11 07:00:00 2.2 5 Sudoeste 8 Sur 0 1024.7 0.1 88
2020-01-11 06:00:00 3.2 0 Calma 11 Norte 0 1024.5 0.1 84
2020-01-11 05:00:00 4.4 8 Norte 13 Norte 0 1024.4 0.2 78
2020-01-11 04:00:00 5.2 7 Norte 17 Norte 0 1024.6 0.4 77
2020-01-11 03:00:00 5.2 13 Norte 18 Norte 0 1024.4 -0.1 78
2020-01-11 02:00:00 6.1 13 Norte 26 Norte 0 1024.2 -0.5 76
2020-01-11 01:00:00 7 17 Norte 22 Norte 0 1024.2 -0.4 75
2020-01-11 00:00:00 7 14 Norte 26 Norte 0 1024.5 0.4 79
2020-01-10 23:00:00 7.2 10 Nordeste 24 Norte 0 1024.7 1 87
2020-01-10 22:00:00 8.1 15 Norte 18 Norte 0 1024.6 1.5 87
2020-01-10 21:00:00 9.2 14 Norte 18 Noroeste 0 1024.1 1.6 84
2020-01-10 20:00:00 8.3 10 Norte 15 Norte 0 1023.7 1.2 86
2020-01-10 19:00:00 10 11 Norte 24 Norte 0 1023.1 1 77
2020-01-10 18:00:00 13.8 17 Norte 33 Noroeste 0 1022.5 0 66
2020-01-10 17:00:00 14.7 17 Norte 28 Norte 0 1022.5 -0.8 65
2020-01-10 16:00:00 14.4 19 Norte 28 Norte 0 1022.1 -1.6 68
2020-01-10 15:00:00 13.8 14 Norte 24 Norte 0 1022.5 -2.5 74
2020-01-10 14:00:00 13.3 17 Norte 24 Noroeste 0 1023.3 -1.8 74
2020-01-10 13:00:00 12 11 Norte 24 Noroeste 0 1023.7 -0.9 76
2020-01-10 12:00:00 10.6 13 Norte 18 Norte 0 1025 1.2 85
2020-01-10 11:00:00 8.3 6 Norte 15 Norte 0 1025.1 1.4 99
2020-01-10 10:00:00 6.5 8 Noroeste 13 Noroeste 0 1024.6 0.9 99
2020-01-10 09:00:00 4.7 0 Calma 4 Norte 0 1023.8 0.3 99
2020-01-10 08:00:00 3.9 0 Calma -- -- 0 1023.7 0.1 99
2020-01-10 07:00:00 3.2 0 Calma -- -- 0 1023.7 -0.1 98
2020-01-10 06:00:00 2.2 5 Nordeste 5 Norte 0 1023.5 -0.7 97
2020-01-10 05:00:00 3 4 Norte 8 Nordeste 0 1023.6 -0.5 98
2020-01-10 04:00:00 3.7 4 Sudeste 17 Noroeste 0 1023.8 -0.8 97
2020-01-10 03:00:00 5.3 13 Oeste 18 Oeste 0 1024.2 -0.9 98
2020-01-10 02:00:00 3.7 4 Nordeste 9 Este 0 1024.1 -1.1 97
2020-01-10 01:00:00 4.3 7 Nordeste 9 Este 0 1024.6 -0.1 97
2020-01-10 00:00:00 4.9 4 Nordeste 11 Este 0 1025.1 0.6 96
2020-01-09 23:00:00 5.7 8 Este 11 Este 0 1025.2 0.4 96
2020-01-09 22:00:00 6.9 2 Oeste 8 Noroeste 0 1024.7 0.2 95
2020-01-09 21:00:00 8.3 4 Sudeste 11 Oeste 0 1024.5 0.9 90
2020-01-09 20:00:00 10.1 8 Noroeste 22 Noroeste 0 1024.8 1.5 88
2020-01-09 19:00:00 12.5 14 Oeste 21 Oeste 0 1024.5 0.7 76
2020-01-09 18:00:00 14.9 11 Oeste 18 Oeste 0 1023.6 -0.1 70
2020-01-09 17:00:00 16.7 9 Noroeste 28 Noroeste 0 1023.3 -0.6 59
2020-01-09 16:00:00 17.5 10 Noroeste 17 Noroeste 0 1023.8 -1.5 59
2020-01-09 15:00:00 17.7 10 Sudoeste 15 Sudoeste 0 1023.7 -2.5 57
2020-01-09 14:00:00 16.7 6 Este 15 Este 0 1023.9 -2.4 64
2020-01-09 13:00:00 14.7 3 Nordeste 13 Norte 0 1025.3 -0.3 67
2020-01-09 12:00:00 13 5 Norte 11 Norte 0 1026.2 1.2 75
2020-01-09 11:00:00 8.8 2 Norte 8 Norte 0 1026.3 1.6 90
2020-01-09 10:00:00 4.8 0 Calma 4 Norte 0 1025.6 1.4 98
2020-01-09 09:00:00 2 3 Noroeste 8 Sudeste 0 1025 0.9 97
2020-01-09 08:00:00 2.5 2 Noroeste 11 Noroeste 0 1024.7 0.5 97
2020-01-09 07:00:00 2.5 8 Norte -- -- -- 1024.2 -0.4 97
2020-01-09 06:00:00 1.7 8 Norte 9 Norte 0 1024.1 -0.7 96
2020-01-09 05:00:00 3.3 3 Norte 9 Nordeste 0 1024.2 -0.6 98
2020-01-09 04:00:00 2.8 6 Nordeste 9 Nordeste 0 1024.6 -0.6 97
2020-01-09 03:00:00 3.5 3 Nordeste -- -- 0 1024.8 -0.6 96
2020-01-09 02:00:00 3.6 4 Este 5 Este 0 1024.8 -0.5 95
2020-01-09 01:00:00 4.1 0 Calma 4 Este 0 1025.2 0.2 94
2020-01-09 00:00:00 4.1 4 Nordeste 8 Nordeste 0 1025.4 0.7 93
2020-01-08 23:00:00 4.9 3 Noroeste -- -- 0 1025.3 1.1 90
2020-01-08 22:00:00 5.9 0 Calma 9 Nordeste 0 1025 1.1 88
2020-01-08 21:00:00 7.7 6 Sudeste 8 Sudeste 0 1024.7 0.9 82
2020-01-08 20:00:00 9.4 0 Calma 8 Noroeste 0 1024.2 0.5 79
2020-01-08 19:00:00 12.1 6 Noroeste 11 Noroeste 0 1023.9 0.1 68
2020-01-08 18:00:00 15.9 8 Noroeste 17 Noroeste 0 1023.8 -0.3 58
2020-01-08 17:00:00 17.4 7 Noroeste 11 Noroeste 0 1023.7 -0.9 52
2020-01-08 16:00:00 17.4 6 Noroeste 11 Norte 0 1023.8 -1.6 52
2020-01-08 15:00:00 16.8 3 Noroeste 11 Norte 0 1024.1 -2 52
2020-01-08 14:00:00 15.6 6 Noroeste 13 Noroeste 0 1024.6 -1.8 58
2020-01-08 13:00:00 13.9 3 Norte 9 Noroeste 0 1025.4 -0.6 58
2020-01-08 12:00:00 11 3 Noroeste 5 Nordeste 0 1026.1 0.8 79
2020-01-08 11:00:00 7.2 0 Calma 5 Norte 0 1026.4 1.3 92
2020-01-08 10:00:00 4.1 0 Calma 4 Este 0 1026 1 99
2020-01-08 09:00:00 1.2 0 Calma 4 Nordeste 0 1025.3 0.3 99
2020-01-08 08:00:00 0.9 0 Calma 5 Norte 0 1025.1 -0.3 98
2020-01-08 07:00:00 1.3 3 Noroeste -- -- 0 1025 -0.6 98
2020-01-08 06:00:00 1.4 5 Nordeste 8 Nordeste 0 1025 -0.7 98
2020-01-08 05:00:00 2.7 3 Noroeste 8 Nordeste 0 1025.4 -0.6 98
2020-01-08 04:00:00 2.8 4 Nordeste 11 Nordeste 0 1025.6 -0.8 97
2020-01-08 03:00:00 2.5 6 Nordeste -- -- 0 1025.7 -1 95
2020-01-08 02:00:00 3.4 4 Nordeste 8 Nordeste 0 1026 -0.9 96
2020-01-08 01:00:00 3.9 2 Nordeste 5 Norte 0 1026.4 -0.3 93
2020-01-08 00:00:00 4 5 Norte 9 Norte 0 1026.7 0.1 93
2020-01-07 23:00:00 4.8 4 Este 8 Nordeste 0 1026.9 0.4 92
2020-01-07 22:00:00 5.1 0 Calma 5 Norte 0 1026.7 0.4 90
2020-01-07 21:00:00 6.7 0 Calma 8 Este 0 1026.6 0.6 86
2020-01-07 20:00:00 8.2 3 Norte 8 Nordeste 0 1026.5 0.6 83
2020-01-07 19:00:00 11.3 6 Norte 9 Nordeste 0 1026.3 0.2 73
2020-01-07 18:00:00 14.5 6 Norte 13 Norte 0 1026 -0.2 64
2020-01-07 17:00:00 16.4 9 Noroeste 15 Noroeste 0 1025.9 -0.8 59
2020-01-07 16:00:00 16.4 10 Noroeste 15 Norte 0 1026.1 -1.5 60
2020-01-07 15:00:00 15.9 9 Norte 17 Noroeste 0 1026.2 -2 63
2020-01-07 14:00:00 15.6 8 Oeste 13 Noroeste 0 1026.7 -1.9 66
2020-01-07 13:00:00 13.7 6 Noroeste 11 Noroeste 0 1027.6 -0.4 74
2020-01-07 12:00:00 10.9 3 Norte 9 Norte 0 1028.2 0.9 83
2020-01-07 11:00:00 7.8 5 Norte 9 Noroeste 0 1028.6 1.5 93
2020-01-07 10:00:00 4.3 3 Norte -- -- 0 1028 0.8 98
2020-01-07 09:00:00 0.8 5 Norte 8 Norte 0 1027.3 0.5 98
2020-01-07 08:00:00 1.4 3 Sur 5 Sur 0 1027.1 0.3 98
2020-01-07 07:00:00 2 2 Noroeste -- -- 0 1027.2 0.1 98
2020-01-07 06:00:00 2.3 3 Norte 8 Nordeste 0 1026.8 0 97
2020-01-07 05:00:00 2.8 3 Norte 8 Norte 0 1026.8 0 97
2020-01-07 04:00:00 2.1 6 Norte 8 Norte 0 1027.1 -0.1 95
2020-01-07 03:00:00 3.2 3 Este -- -- 0 1026.8 -0.7 96
2020-01-07 02:00:00 3.8 4 Nordeste 9 Este 0 1026.8 -0.4 95
2020-01-07 01:00:00 3.7 7 Este 9 Este 0 1027.2 0.6 94
2020-01-07 00:00:00 4.8 4 Norte 5 Norte 0 1027.5 1.2 94
2020-01-06 23:00:00 5.5 0 Calma 5 Nordeste 0 1027.2 1.5 92
2020-01-06 22:00:00 6.9 0 Calma -- -- 0 1026.6 1.5 89
2020-01-06 21:00:00 7.8 4 Sur 9 Sur 0 1026.3 1.5 84
2020-01-06 20:00:00 8.6 4 Norte 11 Norte 0 1025.7 1.4 84
2020-01-06 19:00:00 10.2 12 Norte 13 Norte 0 1025.1 0.9 78
2020-01-06 18:00:00 13.6 10 Norte 21 Norte 0 1024.8 0 68
2020-01-06 17:00:00 16.2 9 Nordeste 15 Este 0 1024.3 -1.1 57
2020-01-06 16:00:00 16.7 8 Este 15 Nordeste 0 1024.2 -2.2 56
2020-01-06 15:00:00 16.4 4 Nordeste 18 Este 0 1024.8 -2.3 56
2020-01-06 14:00:00 16.3 9 Nordeste 21 Nordeste 0 1025.4 -1.4 59
2020-01-06 13:00:00 15 9 Norte 17 Norte 0 1026.4 0.4 68
2020-01-06 12:00:00 13.3 8 Norte 13 Norte 0 1027.1 1.6 75
2020-01-06 11:00:00 10.1 9 Norte 15 Norte 0 1026.8 1.6 88
2020-01-06 10:00:00 5.5 5 Norte 9 Norte 0 1026 1.3 98